VIR26Q KJFK-EGLL
Flight info
| Callsign | VIR26Q |
|---|---|
| Flight time | N/A |
| Altitude | 37000 |
| Route | MERIT DCT HFD DCT PUT DCT WITCH DCT ALLEX N565B TUDEP/M083F380 DCT 52N050W 53N040W 54N030W 55N020W DCT RESNO DCT NETKI/N0474F390 DCT BOFUM Q37 MALUD Q38 NUGRA |
| Aircraft | A346/H-SDE2E3FGHIJ3J4J5M1RWXY/LB1D1 |
Departure
| Time | 2026-05-06 14:43 |
|---|---|
| Airport | John F. Kennedy International Airport (KJFK) |
Arrival
| Time | N/A |
|---|---|
| Airport | London Heathrow Airport (EGLL) |
| Time | Latitude | Longitude | Altitude | Speed | Heading |
|---|---|---|---|---|---|
| 2026-05-06 13:14 | 40.64436 | -73.77975 | 31 ft | 0 kts | 229° |
| 2026-05-06 14:27 | 40.64445 | -73.77960 | 31 ft | 2 kts | 229° |
| 2026-05-06 14:27 | 40.64456 | -73.77939 | 28 ft | 4 kts | 258° |
| 2026-05-06 14:27 | 40.64455 | -73.77915 | 28 ft | 3 kts | 280° |
| 2026-05-06 14:28 | 40.64450 | -73.77880 | 30 ft | 4 kts | 280° |
| 2026-05-06 14:28 | 40.64446 | -73.77853 | 30 ft | 4 kts | 284° |
| 2026-05-06 14:28 | 40.64438 | -73.77820 | 30 ft | 4 kts | 293° |
| 2026-05-06 14:28 | 40.64426 | -73.77788 | 29 ft | 4 kts | 299° |
| 2026-05-06 14:29 | 40.64413 | -73.77759 | 30 ft | 2 kts | 301° |
| 2026-05-06 14:29 | 40.64400 | -73.77733 | 28 ft | 4 kts | 308° |
| 2026-05-06 14:29 | 40.64382 | -73.77707 | 30 ft | 4 kts | 319° |
| 2026-05-06 14:29 | 40.64362 | -73.77687 | 28 ft | 4 kts | 328° |
| 2026-05-06 14:30 | 40.64342 | -73.77672 | 28 ft | 4 kts | 331° |
| 2026-05-06 14:30 | 40.64319 | -73.77655 | 29 ft | 4 kts | 331° |
| 2026-05-06 14:30 | 40.64295 | -73.77637 | 28 ft | 4 kts | 331° |
| 2026-05-06 14:30 | 40.64271 | -73.77620 | 29 ft | 4 kts | 330° |
| 2026-05-06 14:31 | 40.64248 | -73.77603 | 29 ft | 4 kts | 330° |
| 2026-05-06 14:31 | 40.64225 | -73.77586 | 29 ft | 4 kts | 330° |
| 2026-05-06 14:31 | 40.64202 | -73.77569 | 29 ft | 4 kts | 330° |
| 2026-05-06 14:31 | 40.64178 | -73.77551 | 29 ft | 4 kts | 330° |
| 2026-05-06 14:32 | 40.64155 | -73.77534 | 30 ft | 4 kts | 330° |
| 2026-05-06 14:32 | 40.64133 | -73.77518 | 29 ft | 2 kts | 330° |
| 2026-05-06 14:32 | 40.64111 | -73.77506 | 28 ft | 4 kts | 350° |
| 2026-05-06 14:32 | 40.64089 | -73.77507 | 30 ft | 4 kts | 18° |
| 2026-05-06 14:33 | 40.64068 | -73.77520 | 30 ft | 2 kts | 31° |
| 2026-05-06 14:33 | 40.64047 | -73.77537 | 30 ft | 4 kts | 31° |
| 2026-05-06 14:33 | 40.64034 | -73.77547 | 29 ft | 0 kts | 31° |
| 2026-05-06 14:33 | 40.64040 | -73.77543 | 30 ft | 0 kts | 31° |
| 2026-05-06 14:35 | 40.64042 | -73.77541 | 28 ft | 1 kts | 31° |
| 2026-05-06 14:35 | 40.64055 | -73.77531 | 30 ft | 4 kts | 31° |
| 2026-05-06 14:36 | 40.64079 | -73.77512 | 30 ft | 0 kts | 34° |
| 2026-05-06 14:36 | 40.64084 | -73.77506 | 30 ft | 2 kts | 42° |
| 2026-05-06 14:36 | 40.64090 | -73.77490 | 29 ft | 2 kts | 85° |
| 2026-05-06 14:36 | 40.64083 | -73.77454 | 28 ft | 5 kts | 117° |
| 2026-05-06 14:37 | 40.64053 | -73.77400 | 30 ft | 9 kts | 127° |
| 2026-05-06 14:37 | 40.64022 | -73.77320 | 30 ft | 11 kts | 77° |
| 2026-05-06 14:37 | 40.64043 | -73.77291 | 31 ft | 0 kts | 29° |
| 2026-05-06 14:37 | 40.64048 | -73.77286 | 31 ft | 2 kts | 31° |
| 2026-05-06 14:38 | 40.64064 | -73.77273 | 31 ft | 4 kts | 32° |
| 2026-05-06 14:38 | 40.64098 | -73.77246 | 33 ft | 7 kts | 31° |
| 2026-05-06 14:38 | 40.64145 | -73.77209 | 33 ft | 9 kts | 31° |
| 2026-05-06 14:38 | 40.64211 | -73.77156 | 31 ft | 13 kts | 31° |
| 2026-05-06 14:39 | 40.64300 | -73.77088 | 31 ft | 16 kts | 30° |
| 2026-05-06 14:39 | 40.64399 | -73.77013 | 30 ft | 18 kts | 25° |
| 2026-05-06 14:39 | 40.64529 | -73.76971 | 27 ft | 18 kts | 24° |
| 2026-05-06 14:39 | 40.64623 | -73.76899 | 26 ft | 15 kts | 31° |
| 2026-05-06 14:40 | 40.64718 | -73.76825 | 26 ft | 17 kts | 31° |
| 2026-05-06 14:40 | 40.64804 | -73.76757 | 28 ft | 12 kts | 31° |
| 2026-05-06 14:40 | 40.64875 | -73.76701 | 30 ft | 13 kts | 31° |
| 2026-05-06 14:40 | 40.64957 | -73.76637 | 29 ft | 15 kts | 31° |
| 2026-05-06 14:41 | 40.65048 | -73.76566 | 30 ft | 12 kts | 31° |
| 2026-05-06 14:41 | 40.65102 | -73.76511 | 30 ft | 10 kts | 62° |
| 2026-05-06 14:41 | 40.65083 | -73.76419 | 31 ft | 12 kts | 127° |
| 2026-05-06 14:41 | 40.65023 | -73.76366 | 31 ft | 11 kts | 187° |
| 2026-05-06 14:42 | 40.64925 | -73.76431 | 30 ft | 33 kts | 209° |
| 2026-05-06 14:42 | 40.64544 | -73.76730 | 28 ft | 93 kts | 211° |
| 2026-05-06 14:42 | 40.63833 | -73.77286 | 31 ft | 143 kts | 210° |
| 2026-05-06 14:42 | 40.62843 | -73.78059 | 66 ft | 181 kts | 207° |
| 2026-05-06 14:43 | 40.61721 | -73.78911 | 581 ft | 186 kts | 208° |
| 2026-05-06 14:43 | 40.60614 | -73.79726 | 1430 ft | 176 kts | 208° |
| 2026-05-06 14:43 | 40.59448 | -73.80302 | 1901 ft | 190 kts | 191° |
| 2026-05-06 14:43 | 40.58073 | -73.79876 | 2165 ft | 225 kts | 158° |
| 2026-05-06 14:44 | 40.56904 | -73.78277 | 2578 ft | 262 kts | 128° |
| 2026-05-06 14:44 | 40.56370 | -73.75849 | 3050 ft | 294 kts | 99° |
| 2026-05-06 14:44 | 40.56694 | -73.73097 | 3596 ft | 315 kts | 71° |
| 2026-05-06 14:45 | 40.59756 | -73.69019 | 5143 ft | 317 kts | 26° |
| 2026-05-06 14:45 | 40.61704 | -73.67672 | 5973 ft | 317 kts | 24° |
| 2026-05-06 14:45 | 40.63677 | -73.66356 | 6682 ft | 320 kts | 24° |
| 2026-05-06 14:45 | 40.65670 | -73.65016 | 7370 ft | 323 kts | 25° |
| 2026-05-06 14:46 | 40.67675 | -73.63650 | 8140 ft | 325 kts | 26° |
| 2026-05-06 14:46 | 40.69684 | -73.62258 | 8904 ft | 328 kts | 26° |
| 2026-05-06 14:46 | 40.71712 | -73.60842 | 9652 ft | 332 kts | 26° |
| 2026-05-06 14:46 | 40.73763 | -73.59406 | 10324 ft | 336 kts | 26° |
| 2026-05-06 14:47 | 40.75870 | -73.57929 | 10741 ft | 351 kts | 26° |
| 2026-05-06 14:47 | 40.78076 | -73.56383 | 11062 ft | 368 kts | 26° |
| 2026-05-06 14:47 | 40.80392 | -73.54757 | 11373 ft | 385 kts | 26° |
| 2026-05-06 14:47 | 40.82812 | -73.53056 | 11673 ft | 403 kts | 26° |
| 2026-05-06 14:48 | 40.85335 | -73.51279 | 12005 ft | 418 kts | 26° |
| 2026-05-06 14:48 | 40.87947 | -73.49438 | 12402 ft | 431 kts | 26° |
| 2026-05-06 14:48 | 40.90614 | -73.47554 | 13004 ft | 438 kts | 26° |
| 2026-05-06 14:48 | 40.93313 | -73.45645 | 13716 ft | 442 kts | 26° |
| 2026-05-06 14:49 | 40.96035 | -73.43720 | 14355 ft | 445 kts | 26° |
| 2026-05-06 14:49 | 40.98779 | -73.41777 | 14983 ft | 449 kts | 26° |
| 2026-05-06 14:49 | 41.01545 | -73.39818 | 15641 ft | 452 kts | 26° |
| 2026-05-06 14:49 | 41.04328 | -73.37847 | 16295 ft | 455 kts | 25° |
| 2026-05-06 14:50 | 41.07132 | -73.35857 | 16927 ft | 459 kts | 25° |
| 2026-05-06 14:50 | 41.09955 | -73.33853 | 17549 ft | 462 kts | 25° |
| 2026-05-06 14:50 | 41.12800 | -73.31831 | 18186 ft | 466 kts | 25° |
| 2026-05-06 14:50 | 41.15671 | -73.29788 | 18724 ft | 469 kts | 25° |
| 2026-05-06 14:51 | 41.17575 | -73.28432 | 19108 ft | 470 kts | 25° |
| 2026-05-06 14:51 | 41.20462 | -73.26371 | 19682 ft | 472 kts | 25° |
| 2026-05-06 14:51 | 41.23368 | -73.24296 | 20210 ft | 475 kts | 25° |
| 2026-05-06 14:51 | 41.26289 | -73.22210 | 20750 ft | 477 kts | 24° |
| 2026-05-06 14:52 | 41.29223 | -73.20113 | 21311 ft | 479 kts | 24° |
| 2026-05-06 14:52 | 41.32173 | -73.18002 | 21858 ft | 482 kts | 24° |
| 2026-05-06 14:52 | 41.35111 | -73.15832 | 22396 ft | 486 kts | 28° |
| 2026-05-06 14:52 | 41.37814 | -73.13057 | 22954 ft | 495 kts | 40° |
| 2026-05-06 14:53 | 41.40092 | -73.09583 | 23456 ft | 503 kts | 52° |
| 2026-05-06 14:53 | 41.41965 | -73.05617 | 23886 ft | 507 kts | 57° |
| 2026-05-06 14:53 | 41.43737 | -73.01534 | 24256 ft | 512 kts | 58° |
| 2026-05-06 14:53 | 41.45508 | -72.97388 | 24627 ft | 515 kts | 58° |
| 2026-05-06 14:54 | 41.47294 | -72.93230 | 24994 ft | 518 kts | 58° |
| 2026-05-06 14:54 | 41.49106 | -72.89054 | 25374 ft | 521 kts | 58° |
| 2026-05-06 14:54 | 41.50935 | -72.84865 | 25740 ft | 523 kts | 57° |
| 2026-05-06 14:54 | 41.52774 | -72.80665 | 26093 ft | 526 kts | 57° |
| 2026-05-06 14:55 | 41.54629 | -72.76435 | 26494 ft | 528 kts | 57° |
| 2026-05-06 14:55 | 41.56491 | -72.72185 | 26888 ft | 531 kts | 57° |
| 2026-05-06 14:55 | 41.58359 | -72.67913 | 27283 ft | 534 kts | 57° |
| 2026-05-06 14:55 | 41.60236 | -72.63615 | 27650 ft | 536 kts | 57° |
| 2026-05-06 14:56 | 41.62122 | -72.59287 | 28007 ft | 539 kts | 57° |
| 2026-05-06 14:56 | 41.64011 | -72.54948 | 28508 ft | 538 kts | 57° |
| 2026-05-06 14:56 | 41.65913 | -72.50656 | 29178 ft | 534 kts | 56° |
| 2026-05-06 14:56 | 41.67827 | -72.46413 | 29811 ft | 530 kts | 56° |
| 2026-05-06 14:57 | 41.69735 | -72.42205 | 30306 ft | 528 kts | 56° |
| 2026-05-06 14:57 | 41.71637 | -72.38001 | 30768 ft | 526 kts | 56° |
| 2026-05-06 14:57 | 41.73529 | -72.33805 | 31216 ft | 526 kts | 56° |
| 2026-05-06 14:57 | 41.75418 | -72.29605 | 31662 ft | 525 kts | 56° |
| 2026-05-06 14:58 | 41.77298 | -72.25414 | 32064 ft | 525 kts | 56° |
| 2026-05-06 14:58 | 41.79179 | -72.21217 | 32488 ft | 524 kts | 56° |
| 2026-05-06 14:58 | 41.81051 | -72.17029 | 32957 ft | 523 kts | 56° |
| 2026-05-06 14:58 | 41.82916 | -72.12847 | 33442 ft | 521 kts | 56° |
| 2026-05-06 14:59 | 41.84776 | -72.08672 | 33821 ft | 521 kts | 56° |
| 2026-05-06 14:59 | 41.86636 | -72.04490 | 34159 ft | 521 kts | 56° |
| 2026-05-06 14:59 | 41.88489 | -72.00312 | 34457 ft | 521 kts | 56° |
| 2026-05-06 14:59 | 41.90344 | -71.96125 | 34746 ft | 522 kts | 55° |
| 2026-05-06 15:00 | 41.92217 | -71.91935 | 35009 ft | 522 kts | 53° |
| 2026-05-06 15:00 | 41.94219 | -71.87866 | 35212 ft | 522 kts | 49° |
| 2026-05-06 15:00 | 41.96397 | -71.83968 | 35404 ft | 521 kts | 45° |
| 2026-05-06 15:00 | 41.98751 | -71.80261 | 35626 ft | 520 kts | 41° |
| 2026-05-06 15:01 | 42.01240 | -71.76792 | 35757 ft | 520 kts | 38° |
| 2026-05-06 15:01 | 42.03870 | -71.73350 | 35967 ft | 521 kts | 37° |
| 2026-05-06 15:01 | 42.06484 | -71.69972 | 36226 ft | 521 kts | 37° |
| 2026-05-06 15:01 | 42.09103 | -71.66581 | 36467 ft | 521 kts | 36° |
| 2026-05-06 15:02 | 42.11675 | -71.63235 | 36689 ft | 522 kts | 36° |
| 2026-05-06 15:02 | 42.14289 | -71.59821 | 36904 ft | 523 kts | 36° |
| 2026-05-06 15:02 | 42.16906 | -71.56392 | 36920 ft | 525 kts | 36° |
| 2026-05-06 15:03 | 42.22116 | -71.49547 | 36909 ft | 521 kts | 37° |
| 2026-05-06 15:03 | 42.27332 | -71.42657 | 36904 ft | 520 kts | 37° |
| 2026-05-06 15:04 | 42.32475 | -71.35850 | 36909 ft | 521 kts | 37° |
| 2026-05-06 15:04 | 42.37660 | -71.28973 | 36891 ft | 522 kts | 37° |
| 2026-05-06 15:05 | 42.42878 | -71.22032 | 36908 ft | 522 kts | 37° |
| 2026-05-06 15:05 | 42.48027 | -71.15169 | 36921 ft | 523 kts | 37° |
| 2026-05-06 15:06 | 42.53228 | -71.08219 | 36902 ft | 525 kts | 37° |
| 2026-05-06 15:06 | 42.58428 | -71.01250 | 36919 ft | 525 kts | 37° |
| 2026-05-06 15:07 | 42.63619 | -70.94277 | 36915 ft | 526 kts | 38° |
| 2026-05-06 15:07 | 42.68564 | -70.86845 | 36883 ft | 534 kts | 45° |
| 2026-05-06 15:08 | 42.72865 | -70.78586 | 36894 ft | 535 kts | 52° |
| 2026-05-06 15:08 | 42.76889 | -70.70034 | 36927 ft | 536 kts | 52° |
| 2026-05-06 15:09 | 42.80918 | -70.61451 | 36889 ft | 538 kts | 52° |
| 2026-05-06 15:09 | 42.84963 | -70.52851 | 36870 ft | 538 kts | 52° |
| 2026-05-06 15:10 | 42.88958 | -70.44351 | 36882 ft | 534 kts | 52° |
| 2026-05-06 15:10 | 42.93003 | -70.35739 | 36901 ft | 535 kts | 52° |
| 2026-05-06 15:11 | 42.96986 | -70.27232 | 36896 ft | 535 kts | 53° |
| 2026-05-06 15:11 | 43.00986 | -70.18659 | 36871 ft | 535 kts | 53° |
| 2026-05-06 15:12 | 43.04971 | -70.10095 | 36891 ft | 532 kts | 53° |
| 2026-05-06 15:12 | 43.08940 | -70.01539 | 36898 ft | 532 kts | 53° |
| 2026-05-06 15:13 | 43.12902 | -69.92976 | 36909 ft | 532 kts | 53° |
| 2026-05-06 15:13 | 43.16857 | -69.84403 | 36896 ft | 532 kts | 53° |
| 2026-05-06 15:14 | 43.20801 | -69.75837 | 36917 ft | 531 kts | 53° |
| 2026-05-06 15:14 | 43.24736 | -69.67251 | 36913 ft | 531 kts | 53° |
| 2026-05-06 15:15 | 43.28666 | -69.58654 | 36917 ft | 531 kts | 54° |
| 2026-05-06 15:15 | 43.32587 | -69.50054 | 36941 ft | 531 kts | 54° |
| 2026-05-06 15:16 | 43.36503 | -69.41443 | 36927 ft | 531 kts | 54° |
| 2026-05-06 15:16 | 43.40386 | -69.32875 | 36923 ft | 531 kts | 54° |
| 2026-05-06 15:17 | 43.44275 | -69.24268 | 36920 ft | 527 kts | 54° |
| 2026-05-06 15:17 | 43.48146 | -69.15680 | 36937 ft | 527 kts | 54° |
| 2026-05-06 15:18 | 43.52010 | -69.07079 | 36937 ft | 527 kts | 54° |
| 2026-05-06 15:18 | 43.55863 | -68.98477 | 36940 ft | 527 kts | 54° |
| 2026-05-06 15:19 | 43.59715 | -68.89853 | 36956 ft | 527 kts | 54° |
| 2026-05-06 15:19 | 43.63565 | -68.81209 | 36949 ft | 528 kts | 55° |
| 2026-05-06 15:20 | 43.67409 | -68.72551 | 36917 ft | 528 kts | 55° |
| 2026-05-06 15:20 | 43.71238 | -68.63906 | 36932 ft | 525 kts | 55° |
| 2026-05-06 15:21 | 43.75019 | -68.55337 | 36963 ft | 525 kts | 55° |
| 2026-05-06 15:21 | 43.78825 | -68.46687 | 36955 ft | 525 kts | 55° |
| 2026-05-06 15:22 | 43.82623 | -68.38029 | 36951 ft | 525 kts | 56° |
| 2026-05-06 15:22 | 43.86415 | -68.29360 | 36959 ft | 526 kts | 56° |
| 2026-05-06 15:23 | 43.90205 | -68.20671 | 36962 ft | 526 kts | 56° |
| 2026-05-06 15:23 | 43.93989 | -68.11968 | 36952 ft | 526 kts | 56° |
| 2026-05-06 15:24 | 43.97758 | -68.03270 | 36963 ft | 524 kts | 56° |
| 2026-05-06 15:24 | 44.01522 | -67.94561 | 36976 ft | 525 kts | 56° |
| 2026-05-06 15:25 | 44.05278 | -67.85846 | 36977 ft | 525 kts | 56° |
| 2026-05-06 15:25 | 44.09025 | -67.77123 | 36972 ft | 525 kts | 56° |
| 2026-05-06 15:26 | 44.12766 | -67.68387 | 36977 ft | 525 kts | 56° |
| 2026-05-06 15:26 | 44.16502 | -67.59639 | 36977 ft | 525 kts | 56° |
| 2026-05-06 15:27 | 44.20229 | -67.50883 | 36964 ft | 525 kts | 56° |
| 2026-05-06 15:27 | 44.23938 | -67.42142 | 36980 ft | 522 kts | 56° |
| 2026-05-06 15:28 | 44.27634 | -67.33404 | 37009 ft | 522 kts | 57° |
| 2026-05-06 15:28 | 44.31324 | -67.24655 | 36992 ft | 523 kts | 57° |
| 2026-05-06 15:29 | 44.35008 | -67.15889 | 36994 ft | 523 kts | 57° |
| 2026-05-06 15:29 | 44.38691 | -67.07099 | 36999 ft | 523 kts | 57° |
| 2026-05-06 15:30 | 44.42680 | -66.98619 | 36996 ft | 521 kts | 50° |
| 2026-05-06 15:30 | 44.47245 | -66.90867 | 36999 ft | 518 kts | 45° |
| 2026-05-06 15:31 | 44.51991 | -66.83275 | 36997 ft | 518 kts | 45° |
| 2026-05-06 15:31 | 44.56717 | -66.75685 | 37001 ft | 515 kts | 45° |
| 2026-05-06 15:32 | 44.63748 | -66.64299 | 36989 ft | 514 kts | 45° |
| 2026-05-06 15:32 | 44.68425 | -66.56688 | 36991 ft | 514 kts | 45° |
| 2026-05-06 15:33 | 44.73102 | -66.49057 | 36996 ft | 514 kts | 45° |
| 2026-05-06 15:33 | 44.77764 | -66.41427 | 36996 ft | 514 kts | 46° |
| 2026-05-06 15:34 | 44.82420 | -66.33784 | 36999 ft | 514 kts | 46° |
| 2026-05-06 15:34 | 44.87073 | -66.26129 | 37001 ft | 514 kts | 46° |
| 2026-05-06 15:35 | 44.91721 | -66.18462 | 36996 ft | 514 kts | 46° |
| 2026-05-06 15:35 | 44.96362 | -66.10782 | 37002 ft | 514 kts | 46° |
| 2026-05-06 15:36 | 45.00972 | -66.03134 | 37007 ft | 514 kts | 46° |
| 2026-05-06 15:36 | 45.05604 | -65.95429 | 37017 ft | 514 kts | 46° |
| 2026-05-06 15:37 | 45.10238 | -65.87700 | 37009 ft | 514 kts | 46° |
| 2026-05-06 15:37 | 45.14866 | -65.79958 | 37009 ft | 515 kts | 46° |
| 2026-05-06 15:38 | 45.19494 | -65.72197 | 37012 ft | 515 kts | 46° |
| 2026-05-06 15:38 | 45.24120 | -65.64415 | 37010 ft | 515 kts | 46° |
| 2026-05-06 15:39 | 45.27959 | -65.57942 | 37015 ft | 515 kts | 46° |
| 2026-05-06 15:39 | 45.32581 | -65.50128 | 37014 ft | 516 kts | 46° |
| 2026-05-06 15:40 | 45.37200 | -65.42300 | 37005 ft | 516 kts | 46° |
| 2026-05-06 15:40 | 45.41812 | -65.34459 | 37006 ft | 516 kts | 47° |
| 2026-05-06 15:41 | 45.46414 | -65.26614 | 37007 ft | 516 kts | 47° |
| 2026-05-06 15:41 | 45.51020 | -65.18739 | 37006 ft | 516 kts | 47° |
| 2026-05-06 15:42 | 45.55620 | -65.10854 | 37001 ft | 517 kts | 47° |
| 2026-05-06 15:42 | 45.60216 | -65.02952 | 36984 ft | 517 kts | 47° |
| 2026-05-06 15:43 | 45.64783 | -64.95083 | 37001 ft | 514 kts | 47° |
| 2026-05-06 15:43 | 45.69310 | -64.87255 | 36999 ft | 514 kts | 47° |
| 2026-05-06 15:44 | 45.73897 | -64.79301 | 36995 ft | 514 kts | 47° |
| 2026-05-06 15:44 | 45.78415 | -64.71446 | 37007 ft | 514 kts | 47° |
| 2026-05-06 15:45 | 45.82973 | -64.63498 | 36987 ft | 516 kts | 47° |
| 2026-05-06 15:45 | 45.87529 | -64.55532 | 36977 ft | 516 kts | 47° |
| 2026-05-06 15:46 | 45.92082 | -64.47549 | 36970 ft | 516 kts | 47° |
| 2026-05-06 15:46 | 45.96628 | -64.39553 | 36972 ft | 516 kts | 47° |
| 2026-05-06 15:47 | 46.01180 | -64.31525 | 36969 ft | 516 kts | 47° |
| 2026-05-06 15:47 | 46.05715 | -64.23504 | 36970 ft | 516 kts | 48° |
| 2026-05-06 15:48 | 46.10243 | -64.15476 | 36980 ft | 516 kts | 48° |
| 2026-05-06 15:48 | 46.14769 | -64.07425 | 36957 ft | 516 kts | 48° |
| 2026-05-06 15:49 | 46.19275 | -63.99387 | 36971 ft | 514 kts | 48° |
| 2026-05-06 15:49 | 46.23766 | -63.91349 | 36972 ft | 513 kts | 48° |
| 2026-05-06 15:50 | 46.28256 | -63.83292 | 36983 ft | 514 kts | 48° |
| 2026-05-06 15:50 | 46.32740 | -63.75221 | 36981 ft | 514 kts | 48° |
| 2026-05-06 15:51 | 46.37225 | -63.67126 | 36983 ft | 515 kts | 49° |
| 2026-05-06 15:51 | 46.41676 | -63.59070 | 36987 ft | 515 kts | 49° |
| 2026-05-06 15:52 | 46.46157 | -63.50936 | 36982 ft | 516 kts | 49° |
| 2026-05-06 15:52 | 46.50632 | -63.42787 | 36985 ft | 516 kts | 49° |
| 2026-05-06 15:53 | 46.55102 | -63.34624 | 37007 ft | 516 kts | 49° |
| 2026-05-06 15:53 | 46.59576 | -63.26432 | 36990 ft | 517 kts | 49° |
| 2026-05-06 15:54 | 46.64042 | -63.18228 | 36982 ft | 517 kts | 49° |
| 2026-05-06 15:54 | 46.68510 | -63.09995 | 36976 ft | 517 kts | 49° |
| 2026-05-06 15:55 | 46.72954 | -63.01783 | 36980 ft | 514 kts | 49° |
| 2026-05-06 15:55 | 46.77367 | -62.93603 | 36978 ft | 513 kts | 49° |
| 2026-05-06 15:56 | 46.81783 | -62.85396 | 36983 ft | 513 kts | 49° |
| 2026-05-06 15:56 | 46.86188 | -62.77183 | 36997 ft | 513 kts | 49° |
| 2026-05-06 15:57 | 46.90596 | -62.68940 | 36987 ft | 514 kts | 49° |
| 2026-05-06 15:57 | 46.95008 | -62.60666 | 36984 ft | 514 kts | 49° |
| 2026-05-06 15:58 | 46.99375 | -62.52451 | 36982 ft | 514 kts | 50° |
| 2026-05-06 15:58 | 47.03778 | -62.44141 | 36978 ft | 514 kts | 49° |
| 2026-05-06 15:59 | 47.08166 | -62.35836 | 36979 ft | 514 kts | 50° |
| 2026-05-06 15:59 | 47.12550 | -62.27516 | 36980 ft | 515 kts | 50° |
| 2026-05-06 16:00 | 47.16924 | -62.19188 | 37020 ft | 515 kts | 50° |
| 2026-05-06 16:00 | 47.21304 | -62.10824 | 37001 ft | 516 kts | 50° |
| 2026-05-06 16:01 | 47.25675 | -62.02445 | 36986 ft | 515 kts | 49° |
| 2026-05-06 16:01 | 47.30023 | -61.94085 | 37006 ft | 514 kts | 49° |
| 2026-05-06 16:02 | 47.34369 | -61.85716 | 37016 ft | 514 kts | 49° |
| 2026-05-06 16:02 | 47.38713 | -61.77321 | 37017 ft | 514 kts | 49° |
| 2026-05-06 16:03 | 47.43045 | -61.68922 | 37017 ft | 514 kts | 50° |
| 2026-05-06 16:03 | 47.47344 | -61.60560 | 37016 ft | 514 kts | 50° |
| 2026-05-06 16:04 | 47.51665 | -61.52130 | 37012 ft | 514 kts | 50° |
| 2026-05-06 16:04 | 47.55981 | -61.43684 | 37009 ft | 514 kts | 50° |
| 2026-05-06 16:05 | 47.60293 | -61.35220 | 37009 ft | 514 kts | 50° |
| 2026-05-06 16:05 | 47.64598 | -61.26746 | 37020 ft | 515 kts | 50° |
| 2026-05-06 16:06 | 47.68904 | -61.18240 | 37013 ft | 515 kts | 50° |
| 2026-05-06 16:06 | 47.73207 | -61.09713 | 37008 ft | 515 kts | 50° |
| 2026-05-06 16:07 | 47.77505 | -61.01167 | 37008 ft | 515 kts | 50° |
| 2026-05-06 16:07 | 47.81793 | -60.92629 | 37005 ft | 515 kts | 51° |
| 2026-05-06 16:08 | 47.86067 | -60.84071 | 37009 ft | 514 kts | 51° |
| 2026-05-06 16:08 | 47.90334 | -60.75501 | 37005 ft | 514 kts | 51° |
| 2026-05-06 16:09 | 47.94597 | -60.66916 | 37026 ft | 515 kts | 51° |
| 2026-05-06 16:09 | 47.98873 | -60.58285 | 37008 ft | 517 kts | 51° |
| 2026-05-06 16:10 | 48.03141 | -60.49639 | 37013 ft | 517 kts | 51° |
| 2026-05-06 16:10 | 48.07410 | -60.40963 | 37013 ft | 517 kts | 51° |
| 2026-05-06 16:11 | 48.11652 | -60.32322 | 37015 ft | 519 kts | 52° |
| 2026-05-06 16:11 | 48.15929 | -60.23575 | 37009 ft | 520 kts | 52° |
| 2026-05-06 16:12 | 48.20200 | -60.14811 | 37014 ft | 520 kts | 52° |
| 2026-05-06 16:12 | 48.24465 | -60.06031 | 37025 ft | 520 kts | 52° |
| 2026-05-06 16:13 | 48.28726 | -59.97238 | 37028 ft | 521 kts | 52° |
| 2026-05-06 16:13 | 48.32985 | -59.88414 | 37028 ft | 521 kts | 52° |
| 2026-05-06 16:14 | 48.37238 | -59.79577 | 37022 ft | 521 kts | 52° |
| 2026-05-06 16:14 | 48.41483 | -59.70722 | 37041 ft | 522 kts | 53° |
| 2026-05-06 16:15 | 48.45728 | -59.61839 | 37037 ft | 522 kts | 53° |
| 2026-05-06 16:15 | 48.49972 | -59.52932 | 37038 ft | 522 kts | 53° |
| 2026-05-06 16:16 | 48.54205 | -59.44016 | 37035 ft | 522 kts | 53° |
| 2026-05-06 16:16 | 48.58409 | -59.35137 | 37035 ft | 523 kts | 53° |
| 2026-05-06 16:17 | 48.62669 | -59.26110 | 37035 ft | 523 kts | 53° |
| 2026-05-06 16:17 | 48.66891 | -59.17136 | 37038 ft | 523 kts | 53° |
| 2026-05-06 16:18 | 48.71082 | -59.08193 | 37040 ft | 523 kts | 53° |
| 2026-05-06 16:18 | 48.75292 | -58.99185 | 37032 ft | 524 kts | 53° |
| 2026-05-06 16:19 | 48.79504 | -58.90134 | 37037 ft | 525 kts | 53° |
| 2026-05-06 16:19 | 48.83709 | -58.81069 | 37039 ft | 525 kts | 53° |
| 2026-05-06 16:20 | 48.87906 | -58.71994 | 37038 ft | 524 kts | 54° |
| 2026-05-06 16:20 | 48.92085 | -58.62926 | 37039 ft | 521 kts | 54° |
| 2026-05-06 16:21 | 48.96238 | -58.53881 | 37045 ft | 521 kts | 54° |
| 2026-05-06 16:21 | 49.00375 | -58.44842 | 37040 ft | 520 kts | 54° |
| 2026-05-06 16:22 | 49.04511 | -58.35775 | 37043 ft | 521 kts | 54° |
| 2026-05-06 16:22 | 49.08640 | -58.26693 | 37041 ft | 521 kts | 54° |
| 2026-05-06 16:23 | 49.12764 | -58.17592 | 37046 ft | 521 kts | 54° |
| 2026-05-06 16:23 | 49.16883 | -58.08470 | 37052 ft | 521 kts | 54° |
| 2026-05-06 16:24 | 49.20994 | -57.99337 | 37047 ft | 521 kts | 54° |
| 2026-05-06 16:24 | 49.25100 | -57.90183 | 37035 ft | 521 kts | 54° |
| 2026-05-06 16:25 | 49.29199 | -57.81010 | 37034 ft | 521 kts | 54° |
| 2026-05-06 16:25 | 49.33292 | -57.71821 | 37046 ft | 521 kts | 55° |
| 2026-05-06 16:26 | 49.36689 | -57.64174 | 37037 ft | 522 kts | 55° |
| 2026-05-06 16:26 | 49.40773 | -57.54945 | 37037 ft | 522 kts | 55° |
| 2026-05-06 16:27 | 49.44845 | -57.45715 | 37025 ft | 520 kts | 55° |
| 2026-05-06 16:27 | 49.49544 | -57.35024 | 37029 ft | 518 kts | 55° |
| 2026-05-06 16:28 | 49.52927 | -57.27295 | 37026 ft | 518 kts | 55° |
| 2026-05-06 16:28 | 49.56953 | -57.18072 | 37027 ft | 518 kts | 56° |
| 2026-05-06 16:29 | 49.60944 | -57.08897 | 37023 ft | 518 kts | 56° |
| 2026-05-06 16:29 | 49.64959 | -56.99638 | 37032 ft | 519 kts | 56° |
| 2026-05-06 16:30 | 49.68325 | -56.91849 | 37019 ft | 520 kts | 56° |
| 2026-05-06 16:30 | 49.72986 | -56.81022 | 37014 ft | 520 kts | 56° |
| 2026-05-06 16:31 | 49.76994 | -56.71680 | 37014 ft | 520 kts | 56° |
| 2026-05-06 16:31 | 49.80996 | -56.62316 | 37014 ft | 522 kts | 56° |
| 2026-05-06 16:32 | 49.85000 | -56.52916 | 37002 ft | 522 kts | 56° |
| 2026-05-06 16:32 | 49.88967 | -56.43570 | 37002 ft | 522 kts | 56° |
| 2026-05-06 16:33 | 49.92956 | -56.34138 | 36997 ft | 522 kts | 56° |
| 2026-05-06 16:34 | 49.98928 | -56.19947 | 36971 ft | 522 kts | 56° |
| 2026-05-06 16:34 | 50.02915 | -56.10436 | 36989 ft | 521 kts | 56° |
| 2026-05-06 16:35 | 50.06865 | -56.00983 | 36990 ft | 521 kts | 56° |
| 2026-05-06 16:35 | 50.10810 | -55.91504 | 36996 ft | 521 kts | 56° |
| 2026-05-06 16:36 | 50.14748 | -55.82009 | 36989 ft | 521 kts | 56° |
| 2026-05-06 16:36 | 50.18656 | -55.72549 | 36990 ft | 521 kts | 56° |
| 2026-05-06 16:37 | 50.22583 | -55.63010 | 36992 ft | 521 kts | 56° |
| 2026-05-06 16:37 | 50.26505 | -55.53447 | 36990 ft | 523 kts | 56° |
| 2026-05-06 16:38 | 50.30424 | -55.43858 | 36988 ft | 523 kts | 57° |
| 2026-05-06 16:38 | 50.34339 | -55.34245 | 36989 ft | 523 kts | 57° |
| 2026-05-06 16:39 | 50.38244 | -55.24620 | 36986 ft | 523 kts | 57° |
| 2026-05-06 16:39 | 50.42142 | -55.14972 | 36992 ft | 523 kts | 57° |
| 2026-05-06 16:40 | 50.46037 | -55.05301 | 36988 ft | 524 kts | 57° |
| 2026-05-06 16:40 | 50.49921 | -54.95621 | 36986 ft | 524 kts | 57° |
| 2026-05-06 16:41 | 50.53801 | -54.85916 | 36985 ft | 524 kts | 57° |
| 2026-05-06 16:41 | 50.57670 | -54.76200 | 36986 ft | 524 kts | 57° |
| 2026-05-06 16:42 | 50.61533 | -54.66464 | 36991 ft | 524 kts | 57° |
| 2026-05-06 16:42 | 50.65384 | -54.56720 | 36991 ft | 524 kts | 57° |
| 2026-05-06 16:43 | 50.69232 | -54.46946 | 36997 ft | 524 kts | 57° |
| 2026-05-06 16:43 | 50.73070 | -54.37163 | 36994 ft | 524 kts | 57° |
| 2026-05-06 16:44 | 50.76901 | -54.27363 | 36997 ft | 524 kts | 57° |
| 2026-05-06 16:44 | 50.80721 | -54.17552 | 36995 ft | 524 kts | 57° |
| 2026-05-06 16:45 | 50.84536 | -54.07714 | 37003 ft | 524 kts | 57° |
| 2026-05-06 16:45 | 50.88345 | -53.97855 | 36995 ft | 524 kts | 57° |
| 2026-05-06 16:46 | 50.92148 | -53.87976 | 36993 ft | 524 kts | 57° |
| 2026-05-06 16:46 | 50.95939 | -53.78089 | 37226 ft | 523 kts | 58° |
| 2026-05-06 16:46 | 50.97828 | -53.73145 | 37507 ft | 523 kts | 58° |
| 2026-05-06 16:47 | 50.99713 | -53.68201 | 37796 ft | 523 kts | 57° |
| 2026-05-06 16:47 | 51.01595 | -53.63256 | 38001 ft | 524 kts | 57° |
| 2026-05-06 16:47 | 51.03480 | -53.58298 | 37977 ft | 523 kts | 57° |
| 2026-05-06 16:48 | 51.07239 | -53.48381 | 37997 ft | 523 kts | 57° |
| 2026-05-06 16:48 | 51.10984 | -53.38462 | 38001 ft | 522 kts | 57° |
| 2026-05-06 16:49 | 51.14719 | -53.28517 | 38003 ft | 523 kts | 57° |
| 2026-05-06 16:49 | 51.18091 | -53.18301 | 37999 ft | 525 kts | 64° |
| 2026-05-06 16:50 | 51.21045 | -53.07637 | 38006 ft | 525 kts | 65° |
| 2026-05-06 16:50 | 51.23947 | -52.96936 | 38008 ft | 525 kts | 65° |
| 2026-05-06 16:51 | 51.26852 | -52.86227 | 38016 ft | 525 kts | 65° |
| 2026-05-06 16:51 | 51.29757 | -52.75511 | 38007 ft | 525 kts | 65° |
| 2026-05-06 16:52 | 51.32655 | -52.64789 | 38016 ft | 525 kts | 65° |
| 2026-05-06 16:52 | 51.35541 | -52.54062 | 38010 ft | 525 kts | 65° |
| 2026-05-06 16:53 | 51.38419 | -52.43302 | 38003 ft | 524 kts | 65° |
| 2026-05-06 16:53 | 51.41271 | -52.32586 | 38011 ft | 522 kts | 65° |
| 2026-05-06 16:54 | 51.44115 | -52.21875 | 38027 ft | 522 kts | 65° |
| 2026-05-06 16:54 | 51.46948 | -52.11148 | 38024 ft | 522 kts | 65° |
| 2026-05-06 16:55 | 51.49772 | -52.00400 | 38022 ft | 522 kts | 65° |
| 2026-05-06 16:55 | 51.52578 | -51.89659 | 38024 ft | 521 kts | 65° |
| 2026-05-06 16:56 | 51.55379 | -51.78899 | 38023 ft | 521 kts | 65° |
| 2026-05-06 16:56 | 51.58168 | -51.68132 | 38022 ft | 521 kts | 65° |
| 2026-05-06 16:57 | 51.60947 | -51.57353 | 38021 ft | 521 kts | 66° |
| 2026-05-06 16:57 | 51.63699 | -51.46621 | 38010 ft | 521 kts | 65° |
| 2026-05-06 16:58 | 51.66449 | -51.35841 | 38015 ft | 519 kts | 65° |
| 2026-05-06 16:58 | 51.69186 | -51.25076 | 38023 ft | 518 kts | 65° |
| 2026-05-06 16:59 | 51.71909 | -51.14311 | 38024 ft | 518 kts | 66° |
| 2026-05-06 16:59 | 51.74624 | -51.03524 | 38037 ft | 518 kts | 66° |
| 2026-05-06 17:00 | 51.77324 | -50.92741 | 38029 ft | 517 kts | 66° |
| 2026-05-06 17:00 | 51.80014 | -50.81950 | 38032 ft | 517 kts | 66° |
| 2026-05-06 17:01 | 51.82694 | -50.71141 | 38033 ft | 517 kts | 66° |
| 2026-05-06 17:01 | 51.85364 | -50.60321 | 38032 ft | 517 kts | 66° |
| 2026-05-06 17:02 | 51.88024 | -50.49491 | 38030 ft | 517 kts | 66° |
| 2026-05-06 17:02 | 51.90672 | -50.38650 | 38034 ft | 517 kts | 66° |
| 2026-05-06 17:03 | 51.93307 | -50.27804 | 38024 ft | 516 kts | 66° |
| 2026-05-06 17:03 | 51.95929 | -50.16963 | 38031 ft | 515 kts | 66° |
| 2026-05-06 17:04 | 51.98516 | -50.06200 | 38040 ft | 515 kts | 66° |
| 2026-05-06 17:04 | 52.00730 | -49.95120 | 38031 ft | 516 kts | 74° |
| 2026-05-06 17:05 | 52.02401 | -49.83756 | 38038 ft | 517 kts | 75° |
| 2026-05-06 17:05 | 52.04008 | -49.72363 | 38040 ft | 517 kts | 75° |
| 2026-05-06 17:06 | 52.05616 | -49.60966 | 38040 ft | 517 kts | 75° |
| 2026-05-06 17:06 | 52.07223 | -49.49525 | 38045 ft | 516 kts | 75° |
| 2026-05-06 17:07 | 52.08816 | -49.38133 | 38040 ft | 515 kts | 75° |